createdAt,value
2023-04-17T00:00:18.033Z,99.90
2023-04-17T00:02:46.735Z,99.90
2023-04-17T00:05:16.912Z,99.90
2023-04-17T00:07:46.718Z,99.90
2023-04-17T00:10:15.053Z,99.90
2023-04-17T00:12:43.594Z,99.90
2023-04-17T00:15:12.513Z,99.90
2023-04-17T00:17:42.240Z,99.90
2023-04-17T00:20:11.326Z,99.90
2023-04-17T00:22:40.361Z,99.90
2023-04-17T00:25:13.086Z,99.90
2023-04-17T00:27:42.042Z,99.90
2023-04-17T00:30:11.325Z,99.90
2023-04-17T00:32:41.149Z,99.90
2023-04-17T00:35:10.249Z,99.90
2023-04-17T00:37:38.808Z,99.90
2023-04-17T00:40:08.568Z,99.90
2023-04-17T00:42:37.272Z,99.90
2023-04-17T00:45:11.006Z,99.90
2023-04-17T00:47:42.228Z,99.90
2023-04-17T00:50:11.476Z,99.90
2023-04-17T00:52:40.253Z,99.90
2023-04-17T00:55:09.770Z,99.90
2023-04-17T00:57:38.572Z,99.90
2023-04-17T01:00:09.664Z,99.90
2023-04-17T01:02:38.630Z,99.90
2023-04-17T01:05:09.189Z,99.90
2023-04-17T01:07:38.948Z,99.90
2023-04-17T01:10:08.818Z,99.90
2023-04-17T01:12:37.385Z,99.90
2023-04-17T01:15:07.741Z,99.90
2023-04-17T01:17:36.353Z,99.90
2023-04-17T01:20:08.012Z,99.90
2023-04-17T01:22:38.937Z,99.90
2023-04-17T01:25:09.424Z,99.90
2023-04-17T01:27:37.979Z,99.90
2023-04-17T01:30:07.142Z,99.90
2023-04-17T01:32:35.766Z,99.90
2023-04-17T01:35:04.640Z,99.90
2023-04-17T01:37:33.306Z,99.90
2023-04-17T01:40:01.876Z,99.90
2023-04-17T01:42:31.753Z,99.90
2023-04-17T01:45:00.188Z,99.90
2023-04-17T01:47:28.657Z,99.90
2023-04-17T01:49:57.189Z,99.90
2023-04-17T01:52:25.523Z,99.90
2023-04-17T01:54:53.952Z,99.90
2023-04-17T01:57:22.399Z,99.90
2023-04-17T01:59:52.155Z,99.90
2023-04-17T02:02:20.716Z,99.90
2023-04-17T02:04:49.162Z,99.90
2023-04-17T02:07:17.956Z,99.90
2023-04-17T02:09:46.518Z,99.90
2023-04-17T02:12:14.848Z,99.90
2023-04-17T02:14:43.396Z,99.90
2023-04-17T02:17:13.313Z,99.90
2023-04-17T02:19:41.972Z,99.90
2023-04-17T02:22:10.520Z,99.90
2023-04-17T02:24:38.965Z,99.90
2023-04-17T02:27:07.521Z,99.90
2023-04-17T02:29:35.857Z,99.90
2023-04-17T02:32:04.410Z,99.90
2023-04-17T02:34:34.294Z,99.90
2023-04-17T02:37:02.851Z,99.90
2023-04-17T02:39:31.884Z,99.90
2023-04-17T02:42:02.262Z,99.90
2023-04-17T02:44:30.695Z,99.90
2023-04-17T02:46:59.407Z,99.90
2023-04-17T02:49:27.931Z,99.90
2023-04-17T02:51:57.696Z,99.90
2023-04-17T02:54:26.383Z,99.90
2023-04-17T02:56:58.558Z,99.90
2023-04-17T02:59:27.358Z,99.90
2023-04-17T03:01:59.941Z,99.90
2023-04-17T03:04:29.027Z,99.90
2023-04-17T03:06:59.266Z,99.90
2023-04-17T03:09:27.851Z,99.90
2023-04-17T03:11:56.751Z,99.90
2023-04-17T03:14:25.324Z,99.90
2023-04-17T03:16:53.839Z,99.90
2023-04-17T03:19:22.316Z,99.90
2023-04-17T03:21:50.751Z,99.90
2023-04-17T03:24:20.519Z,99.90
2023-04-17T03:26:49.074Z,99.90
2023-04-17T03:29:17.518Z,99.90
2023-04-17T03:31:46.003Z,99.90
2023-04-17T03:34:14.440Z,99.90
2023-04-17T03:36:43.069Z,99.90
2023-04-17T03:39:11.884Z,99.90
2023-04-17T03:41:41.994Z,99.90
2023-04-17T03:44:10.801Z,99.90
2023-04-17T03:46:39.844Z,99.90
2023-04-17T03:49:08.282Z,99.90
2023-04-17T03:51:36.851Z,99.90
2023-04-17T03:54:05.404Z,99.90
2023-04-17T03:56:33.962Z,99.90
2023-04-17T03:59:05.446Z,99.90
2023-04-17T04:01:34.321Z,99.90
2023-04-17T04:04:03.422Z,99.90
2023-04-17T04:06:32.047Z,99.90
2023-04-17T04:09:00.475Z,99.90
2023-04-17T04:11:28.919Z,99.90
2023-04-17T04:13:57.241Z,99.90
2023-04-17T04:16:27.444Z,99.90
2023-04-17T04:18:55.944Z,99.90
2023-04-17T04:21:24.958Z,99.90
2023-04-17T04:23:53.405Z,99.90
2023-04-17T04:26:24.492Z,99.90
2023-04-17T04:28:53.044Z,99.90
2023-04-17T04:31:21.799Z,99.90
2023-04-17T04:33:55.431Z,99.90
2023-04-17T04:36:25.218Z,99.90
2023-04-17T04:38:53.675Z,99.90
2023-04-17T04:41:25.357Z,99.90
2023-04-17T04:43:54.368Z,99.90
2023-04-17T04:46:22.893Z,99.90
2023-04-17T04:48:52.688Z,99.90
2023-04-17T04:51:21.270Z,99.90
2023-04-17T04:53:49.702Z,99.90
2023-04-17T04:56:18.250Z,99.90
2023-04-17T04:58:47.053Z,99.90
2023-04-17T05:01:16.160Z,99.90
2023-04-17T05:03:45.458Z,99.90
2023-04-17T05:06:15.421Z,99.90
2023-04-17T05:08:45.141Z,99.90
2023-04-17T05:11:13.465Z,99.90
2023-04-17T05:13:41.909Z,99.90
2023-04-17T05:16:10.630Z,99.90
2023-04-17T05:18:39.155Z,99.90
2023-04-17T05:21:07.832Z,99.90
2023-04-17T05:23:37.950Z,99.90
2023-04-17T05:26:06.998Z,99.90
2023-04-17T05:28:35.688Z,99.90
2023-04-17T05:31:04.349Z,99.90
2023-04-17T05:33:32.797Z,99.90
2023-04-17T05:36:01.252Z,99.90
2023-04-17T05:38:29.671Z,99.90
2023-04-17T05:40:59.714Z,99.90
2023-04-17T05:43:28.257Z,99.90
2023-04-17T05:45:56.700Z,99.90
2023-04-17T05:48:25.232Z,99.90
2023-04-17T05:50:53.833Z,99.90
2023-04-17T05:53:23.439Z,99.90
2023-04-17T05:55:52.010Z,99.90
2023-04-17T05:58:24.147Z,99.90
2023-04-17T06:00:53.796Z,99.90
2023-04-17T06:03:23.138Z,99.90
2023-04-17T06:05:52.143Z,99.90
2023-04-17T06:08:20.816Z,99.90
2023-04-17T06:10:50.452Z,99.90
2023-04-17T06:13:18.886Z,99.90
2023-04-17T06:15:48.767Z,99.90
2023-04-17T06:18:17.796Z,99.90
2023-04-17T06:20:46.488Z,99.90
2023-04-17T06:23:15.198Z,99.90
2023-04-17T06:25:43.755Z,99.90
2023-04-17T06:28:12.206Z,99.90
2023-04-17T06:30:40.754Z,99.90
2023-04-17T06:33:10.612Z,99.90
2023-04-17T06:35:39.061Z,99.90
2023-04-17T06:38:07.489Z,99.90
2023-04-17T06:40:35.944Z,99.90
2023-04-17T06:43:04.623Z,99.90
2023-04-17T06:45:34.499Z,99.90
2023-04-17T06:48:02.853Z,99.90
2023-04-17T06:50:32.727Z,99.90
2023-04-17T06:53:01.147Z,99.90
2023-04-17T06:55:29.939Z,99.90
2023-04-17T06:57:58.499Z,99.90
2023-04-17T07:00:27.295Z,99.90
2023-04-17T07:02:56.044Z,99.90
2023-04-17T07:05:24.792Z,99.90
2023-04-17T07:07:55.986Z,99.90
2023-04-17T07:10:24.542Z,99.90
2023-04-17T07:12:52.983Z,99.90
2023-04-17T07:15:21.879Z,99.90
2023-04-17T07:17:50.338Z,99.90
2023-04-17T07:20:18.784Z,99.90
2023-04-17T07:22:47.705Z,99.90
2023-04-17T07:25:17.708Z,99.90
2023-04-17T07:27:46.148Z,99.90
2023-04-17T07:30:15.084Z,99.90
2023-04-17T07:32:43.531Z,99.90
2023-04-17T07:35:12.072Z,99.90
2023-04-17T07:37:40.510Z,99.90
2023-04-17T07:40:10.894Z,99.90
2023-04-17T07:42:40.764Z,99.90
2023-04-17T07:45:10.755Z,99.90
2023-04-17T07:47:39.252Z,99.90
2023-04-17T07:50:08.996Z,99.90
2023-04-17T07:52:37.292Z,99.90
2023-04-17T07:55:07.389Z,99.90
2023-04-17T07:57:35.975Z,99.90
2023-04-17T08:00:09.314Z,99.90
2023-04-17T08:02:37.869Z,99.90
2023-04-17T08:05:08.195Z,99.90
2023-04-17T08:07:37.303Z,99.90
2023-04-17T08:10:06.701Z,99.90
2023-04-17T08:12:35.361Z,99.90
2023-04-17T08:15:05.843Z,99.90
2023-04-17T08:17:34.577Z,99.90
2023-04-17T08:20:03.927Z,99.90
2023-04-17T08:22:32.365Z,99.90
2023-04-17T08:25:02.436Z,99.90
2023-04-17T08:27:31.781Z,99.90
2023-04-17T08:30:01.946Z,99.90
2023-04-17T08:32:34.091Z,99.90
2023-04-17T08:35:02.618Z,99.90
2023-04-17T08:37:32.264Z,99.90
2023-04-17T08:40:00.816Z,99.90
2023-04-17T08:42:31.177Z,99.90
2023-04-17T08:45:02.113Z,99.90
2023-04-17T08:47:32.158Z,99.90
2023-04-17T08:50:02.015Z,99.90
2023-04-17T08:52:31.540Z,99.90
2023-04-17T08:55:02.618Z,99.90
2023-04-17T08:57:31.182Z,99.90
2023-04-17T09:00:00.468Z,99.90
2023-04-17T09:02:29.121Z,99.90
2023-04-17T09:04:58.977Z,99.90
2023-04-17T09:07:30.992Z,99.90
2023-04-17T09:09:59.750Z,99.90
2023-04-17T09:12:28.788Z,99.90
2023-04-17T09:14:57.354Z,99.90
2023-04-17T09:17:37.602Z,99.90
2023-04-17T09:20:09.806Z,99.90
2023-04-17T09:22:40.313Z,99.90
2023-04-17T09:25:18.349Z,99.90
2023-04-17T09:27:47.153Z,99.90
2023-04-17T09:30:16.206Z,99.90
2023-04-17T09:32:44.804Z,99.90
2023-04-17T09:35:26.043Z,99.90
2023-04-17T09:37:55.805Z,99.90
2023-04-17T09:40:25.475Z,99.90
2023-04-17T09:42:59.518Z,99.90
2023-04-17T09:45:33.414Z,99.90
2023-04-17T09:48:02.179Z,99.90
2023-04-17T09:50:35.947Z,99.90
2023-04-17T09:53:07.553Z,99.90
2023-04-17T09:55:38.323Z,99.90
2023-04-17T09:58:08.637Z,99.90
2023-04-17T10:00:38.228Z,99.90
2023-04-17T10:03:09.571Z,99.90
2023-04-17T10:05:40.080Z,99.90
2023-04-17T10:08:08.886Z,99.90
2023-04-17T10:10:37.337Z,99.90
2023-04-17T10:13:09.613Z,99.90
2023-04-17T10:15:38.550Z,99.90
2023-04-17T10:18:24.544Z,99.90
2023-04-17T10:20:55.593Z,99.90
2023-04-17T10:23:38.307Z,99.90
2023-04-17T10:26:46.569Z,99.90
2023-04-17T10:29:16.011Z,99.90
2023-04-17T10:32:29.257Z,99.90
2023-04-17T10:34:59.411Z,99.90
2023-04-17T10:38:07.571Z,99.90
2023-04-17T10:40:37.209Z,99.90
2023-04-17T10:43:12.850Z,99.90
2023-04-17T10:45:59.650Z,99.90
2023-04-17T10:48:29.323Z,99.90
2023-04-17T10:50:58.240Z,99.90
2023-04-17T10:53:45.504Z,99.90
2023-04-17T10:56:19.356Z,99.90
2023-04-17T10:58:58.845Z,99.90
2023-04-17T11:01:30.361Z,99.90
2023-04-17T11:03:59.689Z,99.90
2023-04-17T11:06:29.539Z,99.90
2023-04-17T11:09:00.630Z,99.90
2023-04-17T11:14:00.627Z,99.90
2023-04-17T11:16:29.203Z,99.90
2023-04-17T11:18:58.364Z,99.90
2023-04-17T11:21:27.516Z,99.90
2023-04-17T11:23:58.596Z,99.90
2023-04-17T11:26:27.428Z,99.90
2023-04-17T11:28:55.826Z,99.90
2023-04-17T11:31:25.019Z,99.90
2023-04-17T11:33:53.910Z,99.90
2023-04-17T11:36:23.551Z,99.90
2023-04-17T11:38:55.018Z,99.90
2023-04-17T11:41:25.360Z,99.90
2023-04-17T11:43:53.799Z,99.90
2023-04-17T11:46:22.512Z,99.90
2023-04-17T11:48:53.209Z,99.90
2023-04-17T11:51:21.996Z,99.90
2023-04-17T11:53:52.509Z,99.90
2023-04-17T11:56:22.598Z,99.90
2023-04-17T11:58:53.937Z,99.90
2023-04-17T12:01:25.011Z,99.90
2023-04-17T12:03:54.514Z,99.90
2023-04-17T12:06:24.298Z,99.90
2023-04-17T12:08:55.864Z,99.90
2023-04-17T12:11:32.816Z,99.90
2023-04-17T12:14:03.915Z,99.90
2023-04-17T12:16:32.488Z,99.90
2023-04-17T12:19:01.084Z,99.90
2023-04-17T12:21:29.567Z,99.90
2023-04-17T12:23:57.900Z,99.90
2023-04-17T12:26:26.577Z,99.90
2023-04-17T12:28:55.010Z,99.90
2023-04-17T12:31:25.160Z,99.90
2023-04-17T12:33:53.814Z,99.90
2023-04-17T12:36:22.306Z,99.90
2023-04-17T12:38:51.428Z,99.90
2023-04-17T12:41:20.103Z,99.90
2023-04-17T12:43:48.913Z,99.90
2023-04-17T12:46:17.694Z,99.90
2023-04-17T12:48:47.577Z,99.90
2023-04-17T12:51:16.311Z,99.90
2023-04-17T12:53:44.943Z,99.90
2023-04-17T12:56:13.263Z,99.90
2023-04-17T12:58:41.843Z,99.90
2023-04-17T13:01:10.556Z,99.90
2023-04-17T13:03:39.358Z,99.90
2023-04-17T13:06:09.809Z,99.90
2023-04-17T13:08:38.478Z,99.90
2023-04-17T13:11:07.510Z,99.90
2023-04-17T13:13:35.957Z,99.90
2023-04-17T13:16:04.747Z,99.90
2023-04-17T13:18:33.306Z,99.90
2023-04-17T13:21:01.922Z,99.90
2023-04-17T13:23:31.866Z,99.90
2023-04-17T13:26:00.362Z,99.90
2023-04-17T13:28:28.990Z,99.90
2023-04-17T13:30:57.601Z,99.90
2023-04-17T13:33:26.361Z,99.90
2023-04-17T13:35:55.028Z,99.90
2023-04-17T13:38:23.351Z,99.90
2023-04-17T13:40:53.120Z,99.90
2023-04-17T13:43:21.614Z,99.90
2023-04-17T13:45:52.294Z,99.90
2023-04-17T13:48:22.776Z,99.90
2023-04-17T13:50:51.241Z,99.70
2023-04-17T13:53:21.196Z,99.90
2023-04-17T13:55:50.954Z,99.10
2023-04-17T13:58:20.853Z,99.70
2023-04-17T14:00:49.557Z,99.60
2023-04-17T14:03:19.176Z,99.10
2023-04-17T14:05:47.959Z,98.70
2023-04-17T14:08:17.008Z,97.70
2023-04-17T14:10:45.461Z,98.10
2023-04-17T14:13:13.787Z,97.70
2023-04-17T14:15:43.773Z,97.80
2023-04-17T14:18:12.367Z,97.80
2023-04-17T14:20:40.689Z,97.50
2023-04-17T14:23:09.209Z,97.50
2023-04-17T14:25:39.326Z,97.50
2023-04-17T14:28:07.658Z,98.20
2023-04-17T14:30:36.210Z,97.40
2023-04-17T14:33:06.329Z,97.60
2023-04-17T14:35:35.533Z,97.20
2023-04-17T14:38:05.272Z,96.10
2023-04-17T14:40:33.819Z,96.80
2023-04-17T14:43:02.388Z,95.90
2023-04-17T14:45:31.704Z,95.60
2023-04-17T14:48:00.154Z,96.00
2023-04-17T14:50:30.234Z,96.60
2023-04-17T14:52:58.686Z,96.20
2023-04-17T14:55:27.214Z,96.40
2023-04-17T14:57:56.140Z,96.00
2023-04-17T15:00:25.091Z,96.50
2023-04-17T15:02:53.767Z,96.80
2023-04-17T15:05:22.899Z,95.80
2023-04-17T15:07:52.541Z,96.10
2023-04-17T15:10:20.985Z,96.80
2023-04-17T15:12:49.545Z,96.20
2023-04-17T15:15:18.114Z,97.70
2023-04-17T15:17:46.689Z,97.30
2023-04-17T15:20:15.224Z,97.00
2023-04-17T15:22:44.145Z,98.30
2023-04-17T15:25:14.026Z,98.30
2023-04-17T15:27:42.734Z,98.00
2023-04-17T15:30:12.727Z,99.00
2023-04-17T15:32:42.041Z,99.50
2023-04-17T15:35:10.916Z,99.90
2023-04-17T15:37:40.097Z,99.90
2023-04-17T15:40:09.868Z,99.90
2023-04-17T15:42:39.957Z,99.90
2023-04-17T15:45:09.989Z,99.90
2023-04-17T15:47:38.770Z,99.90
2023-04-17T15:50:09.599Z,99.90
2023-04-17T15:52:37.938Z,99.90
2023-04-17T15:55:07.082Z,99.90
2023-04-17T15:57:35.549Z,99.90
2023-04-17T16:00:06.743Z,99.90
2023-04-17T16:02:35.490Z,99.90
2023-04-17T16:05:04.438Z,99.90
2023-04-17T16:07:33.603Z,99.90
2023-04-17T16:10:02.200Z,99.90
2023-04-17T16:12:30.602Z,99.90
2023-04-17T16:14:59.042Z,99.90
2023-04-17T16:17:28.942Z,99.90
2023-04-17T16:19:57.900Z,99.90
2023-04-17T16:22:26.408Z,99.90
2023-04-17T16:24:54.843Z,99.90
2023-04-17T16:27:23.303Z,99.90
2023-04-17T16:29:51.882Z,99.90
2023-04-17T16:32:20.841Z,99.90
2023-04-17T16:34:50.781Z,99.90
2023-04-17T16:37:19.449Z,99.90
2023-04-17T16:39:48.528Z,99.90
2023-04-17T16:42:18.132Z,99.90
2023-04-17T16:44:47.174Z,99.90
2023-04-17T16:47:16.233Z,99.90
2023-04-17T16:49:44.910Z,99.90
2023-04-17T16:52:14.907Z,99.90
2023-04-17T16:54:43.356Z,99.90
2023-04-17T16:57:12.019Z,99.90
2023-04-17T16:59:40.336Z,99.90
2023-04-17T17:02:09.288Z,99.90
2023-04-17T17:04:37.869Z,99.90
2023-04-17T17:07:06.504Z,99.90
2023-04-17T17:09:36.265Z,99.90
2023-04-17T17:12:04.943Z,99.90
2023-04-17T17:14:33.521Z,99.90
2023-04-17T17:17:02.082Z,99.90
2023-04-17T17:19:30.624Z,99.90
2023-04-17T17:21:59.079Z,99.90
2023-04-17T17:24:27.758Z,99.90
2023-04-17T17:26:57.627Z,99.90
2023-04-17T17:29:25.949Z,99.90
2023-04-17T17:31:54.306Z,99.90
2023-04-17T17:34:26.505Z,99.90
2023-04-17T17:36:55.469Z,99.90
2023-04-17T17:39:24.305Z,99.90
2023-04-17T17:41:52.764Z,99.90
2023-04-17T17:44:22.476Z,99.90
2023-04-17T17:46:50.948Z,99.90
2023-04-17T17:49:19.246Z,99.90
2023-04-17T17:51:47.450Z,99.90
2023-04-17T17:54:15.929Z,99.90
2023-04-17T17:56:44.453Z,99.90
2023-04-17T17:59:12.638Z,99.90
2023-04-17T18:01:42.353Z,99.90
2023-04-17T18:04:11.115Z,99.90
2023-04-17T18:06:41.218Z,99.90
2023-04-17T18:09:09.646Z,99.90
2023-04-17T18:11:38.272Z,99.90
2023-04-17T18:14:06.678Z,99.90
2023-04-17T18:16:36.229Z,99.90
2023-04-17T18:19:05.778Z,99.90
2023-04-17T18:21:33.907Z,99.90
2023-04-17T18:24:02.817Z,99.90
2023-04-17T18:26:32.001Z,99.90
2023-04-17T18:29:00.093Z,99.90
2023-04-17T18:31:28.452Z,99.90
2023-04-17T18:33:56.929Z,99.90
2023-04-17T18:36:26.424Z,99.90
2023-04-17T18:38:54.576Z,99.90
2023-04-17T18:41:23.045Z,99.90
2023-04-17T18:43:51.180Z,99.90
2023-04-17T18:46:19.731Z,99.90
2023-04-17T18:48:48.205Z,99.90
2023-04-17T18:51:17.484Z,99.90
2023-04-17T18:53:46.927Z,99.90
2023-04-17T18:56:15.260Z,99.90
2023-04-17T18:58:43.677Z,99.90
2023-04-17T19:01:11.966Z,99.90
2023-04-17T19:03:40.461Z,99.90
2023-04-17T19:06:08.535Z,99.90
2023-04-17T19:08:36.903Z,99.90
2023-04-17T19:11:06.689Z,99.90
2023-04-17T19:13:34.810Z,99.90
2023-04-17T19:16:03.052Z,99.90
2023-04-17T19:18:31.235Z,99.90
2023-04-17T19:20:59.368Z,99.90
2023-04-17T19:23:27.502Z,99.90
2023-04-17T19:25:57.416Z,99.90
2023-04-17T19:28:27.389Z,99.90
2023-04-17T19:30:55.993Z,99.90
2023-04-17T19:33:26.368Z,99.90
2023-04-17T19:35:54.448Z,99.90
2023-04-17T19:38:22.489Z,99.90
2023-04-17T19:41:14.482Z,99.90
2023-04-17T19:43:44.000Z,99.90
2023-04-17T19:46:14.092Z,99.90
2023-04-17T19:48:44.442Z,99.90
2023-04-17T19:51:14.406Z,99.90
2023-04-17T19:53:43.920Z,99.90
2023-04-17T19:56:12.041Z,99.90
2023-04-17T19:58:40.956Z,99.90
2023-04-17T20:01:10.476Z,99.90
2023-04-17T20:03:40.093Z,99.90
2023-04-17T20:06:08.930Z,99.90
2023-04-17T20:08:37.083Z,99.90
2023-04-17T20:11:06.459Z,99.90
2023-04-17T20:13:34.510Z,99.90
2023-04-17T20:16:02.509Z,99.90
2023-04-17T20:18:33.804Z,99.90
2023-04-17T20:21:02.245Z,99.90
2023-04-17T20:23:30.523Z,99.90
2023-04-17T20:25:58.494Z,99.90
2023-04-17T20:28:28.869Z,99.90
2023-04-17T20:30:57.126Z,99.90
2023-04-17T20:33:25.231Z,99.90
2023-04-17T20:35:56.685Z,99.90
2023-04-17T20:38:24.674Z,99.90
2023-04-17T20:40:52.901Z,99.90
2023-04-17T20:43:21.053Z,99.90
2023-04-17T20:45:49.584Z,99.90
2023-04-17T20:48:17.921Z,99.90
2023-04-17T20:50:46.257Z,99.90
2023-04-17T20:53:15.873Z,99.90
2023-04-17T20:55:44.118Z,99.90
2023-04-17T20:58:12.261Z,99.90
2023-04-17T21:00:54.059Z,99.90
2023-04-17T21:03:30.214Z,99.90
2023-04-17T21:05:58.486Z,99.90
2023-04-17T21:08:28.014Z,99.90
2023-04-17T21:10:56.220Z,99.90
2023-04-17T21:13:24.574Z,99.90
2023-04-17T21:15:52.816Z,99.90
2023-04-17T21:18:21.054Z,99.90
2023-04-17T21:20:49.288Z,99.90
2023-04-17T21:23:17.375Z,99.90
2023-04-17T21:25:46.831Z,99.90
2023-04-17T21:28:15.007Z,99.90
2023-04-17T21:30:43.100Z,99.90
2023-04-17T21:33:11.308Z,99.90
2023-04-17T21:35:39.921Z,99.90
2023-04-17T21:38:08.393Z,99.90
2023-04-17T21:40:37.293Z,99.90
2023-04-17T21:43:06.889Z,99.90
2023-04-17T21:45:35.110Z,99.90
2023-04-17T21:48:03.346Z,99.90
2023-04-17T21:50:31.986Z,99.90
2023-04-17T21:53:00.120Z,99.90
2023-04-17T21:55:28.409Z,99.90
2023-04-17T21:57:56.644Z,99.90
2023-04-17T22:00:26.493Z,99.90
2023-04-17T22:02:54.844Z,99.90
2023-04-17T22:05:23.103Z,99.90
2023-04-17T22:07:54.837Z,99.90
2023-04-17T22:10:24.348Z,99.90
2023-04-17T22:12:52.563Z,99.90
2023-04-17T22:15:20.902Z,99.90
2023-04-17T22:17:50.744Z,99.90
2023-04-17T22:20:19.663Z,99.90
2023-04-17T22:22:48.071Z,99.90
2023-04-17T22:25:16.263Z,99.90
2023-04-17T22:27:44.490Z,99.90
2023-04-17T22:30:13.058Z,99.90
2023-04-17T22:32:41.379Z,99.90
2023-04-17T22:35:11.660Z,99.90
2023-04-17T22:37:40.408Z,99.90
2023-04-17T22:40:09.917Z,99.90
2023-04-17T22:42:38.062Z,99.90
2023-04-17T22:45:07.112Z,99.90
2023-04-17T22:47:35.486Z,99.90
2023-04-17T22:50:04.192Z,99.90
2023-04-17T22:52:33.710Z,99.90
2023-04-17T22:55:01.940Z,99.90
2023-04-17T22:57:30.156Z,99.90
2023-04-17T22:59:58.464Z,99.90
2023-04-17T23:02:26.727Z,99.90
2023-04-17T23:04:54.948Z,99.90
2023-04-17T23:07:23.071Z,99.90
2023-04-17T23:09:52.614Z,99.90
2023-04-17T23:12:20.964Z,99.90
2023-04-17T23:14:49.066Z,99.90
2023-04-17T23:17:17.273Z,99.90
2023-04-17T23:19:45.446Z,99.90
2023-04-17T23:22:13.767Z,99.90
2023-04-17T23:24:41.977Z,99.90
2023-04-17T23:27:11.475Z,99.90
2023-04-17T23:29:39.684Z,99.90
2023-04-17T23:32:08.492Z,99.90
2023-04-17T23:34:38.018Z,99.90
2023-04-17T23:37:06.276Z,99.90
2023-04-17T23:39:34.471Z,99.90
2023-04-17T23:42:07.090Z,99.90
2023-04-17T23:44:36.936Z,99.90
2023-04-17T23:47:05.343Z,99.90
2023-04-17T23:49:34.051Z,99.90
2023-04-17T23:52:02.356Z,99.90
2023-04-17T23:54:31.782Z,99.90
2023-04-17T23:56:59.906Z,99.90
2023-04-17T23:59:28.049Z,99.90
